sensor_id;sensor_type;location;lat;lon;timestamp;temperature;humidity
67777;DHT22;54576;52.020;5.536;2022-12-18T00:01:06;-2.90;99.90
67777;DHT22;54576;52.020;5.536;2022-12-18T00:03:38;-3.00;99.90
67777;DHT22;54576;52.020;5.536;2022-12-18T00:06:04;-3.00;99.90
67777;DHT22;54576;52.020;5.536;2022-12-18T00:08:30;-2.90;99.90
67777;DHT22;54576;52.020;5.536;2022-12-18T00:10:55;-3.00;99.90
67777;DHT22;54576;52.020;5.536;2022-12-18T00:13:28;-3.00;99.90
67777;DHT22;54576;52.020;5.536;2022-12-18T00:15:53;-3.00;99.90
67777;DHT22;54576;52.020;5.536;2022-12-18T00:18:19;-3.10;99.90
67777;DHT22;54576;52.020;5.536;2022-12-18T00:20:46;-3.10;99.90
67777;DHT22;54576;52.020;5.536;2022-12-18T00:23:12;-3.20;99.90
67777;DHT22;54576;52.020;5.536;2022-12-18T00:25:40;-3.10;99.90
67777;DHT22;54576;52.020;5.536;2022-12-18T00:28:05;-3.10;99.90
67777;DHT22;54576;52.020;5.536;2022-12-18T00:30:31;-3.00;99.90
67777;DHT22;54576;52.020;5.536;2022-12-18T00:32:57;-2.90;99.90
67777;DHT22;54576;52.020;5.536;2022-12-18T00:35:23;-2.90;99.90
67777;DHT22;54576;52.020;5.536;2022-12-18T00:37:49;-2.90;99.90
67777;DHT22;54576;52.020;5.536;2022-12-18T00:40:14;-2.90;99.90
67777;DHT22;54576;52.020;5.536;2022-12-18T00:42:40;-3.00;99.90
67777;DHT22;54576;52.020;5.536;2022-12-18T00:45:26;-3.00;99.90
67777;DHT22;54576;52.020;5.536;2022-12-18T00:47:52;-3.10;99.90
67777;DHT22;54576;52.020;5.536;2022-12-18T00:50:19;-3.10;99.90
67777;DHT22;54576;52.020;5.536;2022-12-18T00:52:46;-3.00;99.90
67777;DHT22;54576;52.020;5.536;2022-12-18T00:55:12;-3.00;99.90
67777;DHT22;54576;52.020;5.536;2022-12-18T00:57:38;-3.00;99.90
67777;DHT22;54576;52.020;5.536;2022-12-18T01:00:07;-3.00;99.90
67777;DHT22;54576;52.020;5.536;2022-12-18T01:02:35;-3.00;99.90
67777;DHT22;54576;52.020;5.536;2022-12-18T01:05:01;-3.00;99.90
67777;DHT22;54576;52.020;5.536;2022-12-18T01:07:27;-3.00;99.90
67777;DHT22;54576;52.020;5.536;2022-12-18T01:09:55;-3.10;99.90
67777;DHT22;54576;52.020;5.536;2022-12-18T01:12:21;-3.00;99.90
67777;DHT22;54576;52.020;5.536;2022-12-18T01:14:47;-3.00;99.90
67777;DHT22;54576;52.020;5.536;2022-12-18T01:17:12;-3.10;99.90
67777;DHT22;54576;52.020;5.536;2022-12-18T01:19:40;-3.10;99.90
67777;DHT22;54576;52.020;5.536;2022-12-18T01:22:05;-3.10;99.90
67777;DHT22;54576;52.020;5.536;2022-12-18T01:24:31;-3.20;99.90
67777;DHT22;54576;52.020;5.536;2022-12-18T01:26:57;-3.20;99.90
67777;DHT22;54576;52.020;5.536;2022-12-18T01:29:22;-3.20;99.90
67777;DHT22;54576;52.020;5.536;2022-12-18T01:31:49;-3.30;99.90
67777;DHT22;54576;52.020;5.536;2022-12-18T01:34:15;-3.40;99.90
67777;DHT22;54576;52.020;5.536;2022-12-18T01:36:41;-3.40;99.90
67777;DHT22;54576;52.020;5.536;2022-12-18T01:39:11;-3.40;99.90
67777;DHT22;54576;52.020;5.536;2022-12-18T01:41:37;-3.40;99.90
67777;DHT22;54576;52.020;5.536;2022-12-18T01:47:19;-3.50;99.90
67777;DHT22;54576;52.020;5.536;2022-12-18T01:49:48;-3.50;99.90
67777;DHT22;54576;52.020;5.536;2022-12-18T01:52:17;-3.50;99.90
67777;DHT22;54576;52.020;5.536;2022-12-18T01:54:46;-3.50;99.90
67777;DHT22;54576;52.020;5.536;2022-12-18T01:57:13;-3.50;99.90
67777;DHT22;54576;52.020;5.536;2022-12-18T01:59:39;-3.50;99.90
67777;DHT22;54576;52.020;5.536;2022-12-18T02:02:06;-3.60;99.90
67777;DHT22;54576;52.020;5.536;2022-12-18T02:04:32;-3.60;99.90
67777;DHT22;54576;52.020;5.536;2022-12-18T02:09:40;-3.70;99.90
67777;DHT22;54576;52.020;5.536;2022-12-18T02:12:19;-3.70;99.90
67777;DHT22;54576;52.020;5.536;2022-12-18T02:15:00;-3.70;99.90
67777;DHT22;54576;52.020;5.536;2022-12-18T02:17:50;-3.70;99.90
67777;DHT22;54576;52.020;5.536;2022-12-18T02:20:33;-3.70;99.90
67777;DHT22;54576;52.020;5.536;2022-12-18T02:26:07;-3.70;99.90
67777;DHT22;54576;52.020;5.536;2022-12-18T02:28:41;-3.80;99.90
67777;DHT22;54576;52.020;5.536;2022-12-18T02:31:11;-3.80;99.90
67777;DHT22;54576;52.020;5.536;2022-12-18T02:33:39;-3.80;99.90
67777;DHT22;54576;52.020;5.536;2022-12-18T02:36:07;-3.80;99.90
67777;DHT22;54576;52.020;5.536;2022-12-18T02:38:35;-3.80;99.90
67777;DHT22;54576;52.020;5.536;2022-12-18T02:41:02;-3.80;99.90
67777;DHT22;54576;52.020;5.536;2022-12-18T02:43:29;-3.90;99.90
67777;DHT22;54576;52.020;5.536;2022-12-18T02:46:00;-3.80;99.90
67777;DHT22;54576;52.020;5.536;2022-12-18T02:48:45;-3.80;99.90
67777;DHT22;54576;52.020;5.536;2022-12-18T02:51:17;-3.80;99.90
67777;DHT22;54576;52.020;5.536;2022-12-18T02:53:53;-3.80;99.90
67777;DHT22;54576;52.020;5.536;2022-12-18T02:56:46;-3.80;99.90
67777;DHT22;54576;52.020;5.536;2022-12-18T02:59:18;-3.90;99.90
67777;DHT22;54576;52.020;5.536;2022-12-18T03:01:57;-3.90;99.90
67777;DHT22;54576;52.020;5.536;2022-12-18T03:07:05;-3.90;99.90
67777;DHT22;54576;52.020;5.536;2022-12-18T03:09:37;-4.00;99.90
67777;DHT22;54576;52.020;5.536;2022-12-18T03:12:18;-3.90;99.90
67777;DHT22;54576;52.020;5.536;2022-12-18T03:14:58;-4.00;99.90
67777;DHT22;54576;52.020;5.536;2022-12-18T03:17:28;-4.00;99.90
67777;DHT22;54576;52.020;5.536;2022-12-18T03:19:59;-4.00;99.90
67777;DHT22;54576;52.020;5.536;2022-12-18T03:22:30;-4.00;99.90
67777;DHT22;54576;52.020;5.536;2022-12-18T03:25:03;-4.10;99.90
67777;DHT22;54576;52.020;5.536;2022-12-18T03:27:32;-4.10;99.90
67777;DHT22;54576;52.020;5.536;2022-12-18T03:30:07;-4.10;99.90
67777;DHT22;54576;52.020;5.536;2022-12-18T03:32:47;-4.10;99.90
67777;DHT22;54576;52.020;5.536;2022-12-18T03:35:18;-4.10;99.90
67777;DHT22;54576;52.020;5.536;2022-12-18T03:37:45;-4.10;99.90
67777;DHT22;54576;52.020;5.536;2022-12-18T03:40:10;-4.10;99.90
67777;DHT22;54576;52.020;5.536;2022-12-18T03:42:51;-4.10;99.90
67777;DHT22;54576;52.020;5.536;2022-12-18T03:45:23;-4.20;99.90
67777;DHT22;54576;52.020;5.536;2022-12-18T03:50:36;-4.20;99.90
67777;DHT22;54576;52.020;5.536;2022-12-18T03:56:02;-4.20;99.90
67777;DHT22;54576;52.020;5.536;2022-12-18T03:58:32;-4.20;99.90
67777;DHT22;54576;52.020;5.536;2022-12-18T04:01:02;-4.20;99.90
67777;DHT22;54576;52.020;5.536;2022-12-18T04:03:31;-4.20;99.90
67777;DHT22;54576;52.020;5.536;2022-12-18T04:05:58;-4.20;99.90
67777;DHT22;54576;52.020;5.536;2022-12-18T04:08:25;-4.20;99.90
67777;DHT22;54576;52.020;5.536;2022-12-18T04:10:51;-4.20;99.90
67777;DHT22;54576;52.020;5.536;2022-12-18T04:13:34;-4.20;99.90
67777;DHT22;54576;52.020;5.536;2022-12-18T04:16:04;-4.20;99.90
67777;DHT22;54576;52.020;5.536;2022-12-18T04:18:30;-4.20;99.90
67777;DHT22;54576;52.020;5.536;2022-12-18T04:20:55;-4.30;99.90
67777;DHT22;54576;52.020;5.536;2022-12-18T04:23:21;-4.30;99.90
67777;DHT22;54576;52.020;5.536;2022-12-18T04:25:47;-4.30;99.90
67777;DHT22;54576;52.020;5.536;2022-12-18T04:28:12;-4.30;99.90
67777;DHT22;54576;52.020;5.536;2022-12-18T04:30:40;-4.30;99.90
67777;DHT22;54576;52.020;5.536;2022-12-18T04:33:11;-4.30;99.90
67777;DHT22;54576;52.020;5.536;2022-12-18T04:35:36;-4.30;99.90
67777;DHT22;54576;52.020;5.536;2022-12-18T04:38:02;-4.30;99.90
67777;DHT22;54576;52.020;5.536;2022-12-18T04:40:29;-4.40;99.90
67777;DHT22;54576;52.020;5.536;2022-12-18T04:42:56;-4.30;99.90
67777;DHT22;54576;52.020;5.536;2022-12-18T04:45:21;-4.40;99.90
67777;DHT22;54576;52.020;5.536;2022-12-18T04:47:47;-4.40;99.90
67777;DHT22;54576;52.020;5.536;2022-12-18T04:50:12;-4.40;99.90
67777;DHT22;54576;52.020;5.536;2022-12-18T04:52:38;-4.40;99.90
67777;DHT22;54576;52.020;5.536;2022-12-18T04:55:04;-4.50;99.90
67777;DHT22;54576;52.020;5.536;2022-12-18T04:57:31;-4.50;99.90
67777;DHT22;54576;52.020;5.536;2022-12-18T04:59:57;-4.60;99.90
67777;DHT22;54576;52.020;5.536;2022-12-18T05:02:22;-4.60;99.90
67777;DHT22;54576;52.020;5.536;2022-12-18T05:04:48;-4.60;99.90
67777;DHT22;54576;52.020;5.536;2022-12-18T05:07:16;-4.60;99.90
67777;DHT22;54576;52.020;5.536;2022-12-18T05:09:42;-4.70;99.90
67777;DHT22;54576;52.020;5.536;2022-12-18T05:12:07;-4.70;99.90
67777;DHT22;54576;52.020;5.536;2022-12-18T05:14:33;-4.70;99.90
67777;DHT22;54576;52.020;5.536;2022-12-18T05:17:01;-4.70;99.90
67777;DHT22;54576;52.020;5.536;2022-12-18T05:19:28;-4.60;99.90
67777;DHT22;54576;52.020;5.536;2022-12-18T05:21:54;-4.60;99.90
67777;DHT22;54576;52.020;5.536;2022-12-18T05:24:19;-4.60;99.90
67777;DHT22;54576;52.020;5.536;2022-12-18T05:26:45;-4.60;99.90
67777;DHT22;54576;52.020;5.536;2022-12-18T05:29:10;-4.60;99.90
67777;DHT22;54576;52.020;5.536;2022-12-18T05:31:38;-4.60;99.90
67777;DHT22;54576;52.020;5.536;2022-12-18T05:34:04;-4.50;99.90
67777;DHT22;54576;52.020;5.536;2022-12-18T05:36:30;-4.50;99.90
67777;DHT22;54576;52.020;5.536;2022-12-18T05:38:56;-4.50;99.90
67777;DHT22;54576;52.020;5.536;2022-12-18T05:41:22;-4.50;99.90
67777;DHT22;54576;52.020;5.536;2022-12-18T05:43:47;-4.50;99.90
67777;DHT22;54576;52.020;5.536;2022-12-18T05:46:17;-4.50;99.90
67777;DHT22;54576;52.020;5.536;2022-12-18T05:48:44;-4.50;99.90
67777;DHT22;54576;52.020;5.536;2022-12-18T05:51:12;-4.50;99.90
67777;DHT22;54576;52.020;5.536;2022-12-18T05:53:38;-4.50;99.90
67777;DHT22;54576;52.020;5.536;2022-12-18T05:56:06;-4.50;99.90
67777;DHT22;54576;52.020;5.536;2022-12-18T05:58:32;-4.50;99.90
67777;DHT22;54576;52.020;5.536;2022-12-18T06:01:07;-4.50;99.90
67777;DHT22;54576;52.020;5.536;2022-12-18T06:03:32;-4.50;99.90
67777;DHT22;54576;52.020;5.536;2022-12-18T06:05:58;-4.50;99.90
67777;DHT22;54576;52.020;5.536;2022-12-18T06:08:24;-4.50;99.90
67777;DHT22;54576;52.020;5.536;2022-12-18T06:10:53;-4.60;99.90
67777;DHT22;54576;52.020;5.536;2022-12-18T06:13:19;-4.50;99.90
67777;DHT22;54576;52.020;5.536;2022-12-18T06:15:45;-4.60;99.90
67777;DHT22;54576;52.020;5.536;2022-12-18T06:18:11;-4.60;99.90
67777;DHT22;54576;52.020;5.536;2022-12-18T06:20:37;-4.50;99.90
67777;DHT22;54576;52.020;5.536;2022-12-18T06:23:05;-4.60;99.90
67777;DHT22;54576;52.020;5.536;2022-12-18T06:25:32;-4.50;99.90
67777;DHT22;54576;52.020;5.536;2022-12-18T06:27:58;-4.60;99.90
67777;DHT22;54576;52.020;5.536;2022-12-18T06:30:24;-4.60;99.90
67777;DHT22;54576;52.020;5.536;2022-12-18T06:32:50;-4.60;99.90
67777;DHT22;54576;52.020;5.536;2022-12-18T06:35:15;-4.60;99.90
67777;DHT22;54576;52.020;5.536;2022-12-18T06:37:41;-4.60;99.90
67777;DHT22;54576;52.020;5.536;2022-12-18T06:40:07;-4.60;99.90
67777;DHT22;54576;52.020;5.536;2022-12-18T06:42:34;-4.70;99.90
67777;DHT22;54576;52.020;5.536;2022-12-18T06:44:59;-4.70;99.90
67777;DHT22;54576;52.020;5.536;2022-12-18T06:47:25;-4.70;99.90
67777;DHT22;54576;52.020;5.536;2022-12-18T06:49:51;-4.70;99.90
67777;DHT22;54576;52.020;5.536;2022-12-18T06:52:16;-4.70;99.90
67777;DHT22;54576;52.020;5.536;2022-12-18T06:54:44;-4.70;99.90
67777;DHT22;54576;52.020;5.536;2022-12-18T06:57:09;-4.70;99.90
67777;DHT22;54576;52.020;5.536;2022-12-18T06:59:35;-4.70;99.90
67777;DHT22;54576;52.020;5.536;2022-12-18T07:02:00;-4.70;99.90
67777;DHT22;54576;52.020;5.536;2022-12-18T07:04:29;-4.70;99.90
67777;DHT22;54576;52.020;5.536;2022-12-18T07:06:55;-4.70;99.90
67777;DHT22;54576;52.020;5.536;2022-12-18T07:09:21;-4.70;99.90
67777;DHT22;54576;52.020;5.536;2022-12-18T07:11:46;-4.70;99.90
67777;DHT22;54576;52.020;5.536;2022-12-18T07:14:12;-4.70;99.90
67777;DHT22;54576;52.020;5.536;2022-12-18T07:16:37;-4.70;99.90
67777;DHT22;54576;52.020;5.536;2022-12-18T07:19:03;-4.70;99.90
67777;DHT22;54576;52.020;5.536;2022-12-18T07:21:29;-4.70;99.90
67777;DHT22;54576;52.020;5.536;2022-12-18T07:23:54;-4.60;99.90
67777;DHT22;54576;52.020;5.536;2022-12-18T07:26:21;-4.60;99.90
67777;DHT22;54576;52.020;5.536;2022-12-18T07:28:48;-4.70;99.90
67777;DHT22;54576;52.020;5.536;2022-12-18T07:31:18;-4.70;99.90
67777;DHT22;54576;52.020;5.536;2022-12-18T07:33:45;-4.60;99.90
67777;DHT22;54576;52.020;5.536;2022-12-18T07:36:11;-4.70;99.90
67777;DHT22;54576;52.020;5.536;2022-12-18T07:38:37;-4.60;99.90
67777;DHT22;54576;52.020;5.536;2022-12-18T07:41:08;-4.60;99.90
67777;DHT22;54576;52.020;5.536;2022-12-18T07:43:34;-4.60;99.90
67777;DHT22;54576;52.020;5.536;2022-12-18T07:46:01;-4.60;99.90
67777;DHT22;54576;52.020;5.536;2022-12-18T07:48:28;-4.60;99.90
67777;DHT22;54576;52.020;5.536;2022-12-18T07:50:55;-4.50;99.90
67777;DHT22;54576;52.020;5.536;2022-12-18T07:53:23;-4.50;99.90
67777;DHT22;54576;52.020;5.536;2022-12-18T07:55:48;-4.40;99.90
67777;DHT22;54576;52.020;5.536;2022-12-18T07:58:14;-4.40;99.90
67777;DHT22;54576;52.020;5.536;2022-12-18T08:00:39;-4.40;99.90
67777;DHT22;54576;52.020;5.536;2022-12-18T08:03:05;-4.30;99.90
67777;DHT22;54576;52.020;5.536;2022-12-18T08:05:30;-4.30;99.90
67777;DHT22;54576;52.020;5.536;2022-12-18T08:08:08;-4.30;99.90
67777;DHT22;54576;52.020;5.536;2022-12-18T08:10:34;-4.20;99.90
67777;DHT22;54576;52.020;5.536;2022-12-18T08:12:59;-4.20;99.90
67777;DHT22;54576;52.020;5.536;2022-12-18T08:15:25;-4.10;99.90
67777;DHT22;54576;52.020;5.536;2022-12-18T08:17:50;-4.10;99.90
67777;DHT22;54576;52.020;5.536;2022-12-18T08:20:16;-4.00;99.90
67777;DHT22;54576;52.020;5.536;2022-12-18T08:22:43;-4.00;99.90
67777;DHT22;54576;52.020;5.536;2022-12-18T08:25:09;-3.90;99.90
67777;DHT22;54576;52.020;5.536;2022-12-18T08:27:36;-3.90;99.90
67777;DHT22;54576;52.020;5.536;2022-12-18T08:30:03;-3.80;99.90
67777;DHT22;54576;52.020;5.536;2022-12-18T08:32:29;-3.70;99.90
67777;DHT22;54576;52.020;5.536;2022-12-18T08:34:55;-3.70;99.90
67777;DHT22;54576;52.020;5.536;2022-12-18T08:37:21;-3.60;99.90
67777;DHT22;54576;52.020;5.536;2022-12-18T08:39:46;-3.60;99.90
67777;DHT22;54576;52.020;5.536;2022-12-18T08:42:12;-3.50;99.90
67777;DHT22;54576;52.020;5.536;2022-12-18T08:44:56;-3.50;99.90
67777;DHT22;54576;52.020;5.536;2022-12-18T08:47:22;-3.40;99.90
67777;DHT22;54576;52.020;5.536;2022-12-18T08:49:47;-3.40;99.90
67777;DHT22;54576;52.020;5.536;2022-12-18T08:52:13;-3.40;99.90
67777;DHT22;54576;52.020;5.536;2022-12-18T08:54:41;-3.30;99.90
67777;DHT22;54576;52.020;5.536;2022-12-18T08:57:07;-3.30;99.90
67777;DHT22;54576;52.020;5.536;2022-12-18T08:59:32;-3.30;99.90
67777;DHT22;54576;52.020;5.536;2022-12-18T09:01:58;-3.20;99.90
67777;DHT22;54576;52.020;5.536;2022-12-18T09:04:23;-3.20;99.90
67777;DHT22;54576;52.020;5.536;2022-12-18T09:06:49;-3.10;99.90
67777;DHT22;54576;52.020;5.536;2022-12-18T09:09:15;-3.10;99.90
67777;DHT22;54576;52.020;5.536;2022-12-18T09:11:40;-3.00;99.90
67777;DHT22;54576;52.020;5.536;2022-12-18T09:14:06;-3.00;99.90
67777;DHT22;54576;52.020;5.536;2022-12-18T09:16:32;-2.90;99.90
67777;DHT22;54576;52.020;5.536;2022-12-18T09:19:00;-2.90;99.90
67777;DHT22;54576;52.020;5.536;2022-12-18T09:21:29;-2.80;99.90
67777;DHT22;54576;52.020;5.536;2022-12-18T09:23:56;-2.80;99.90
67777;DHT22;54576;52.020;5.536;2022-12-18T09:26:23;-2.70;99.90
67777;DHT22;54576;52.020;5.536;2022-12-18T09:28:49;-2.60;99.90
67777;DHT22;54576;52.020;5.536;2022-12-18T09:31:15;-2.60;99.90
67777;DHT22;54576;52.020;5.536;2022-12-18T09:33:42;-2.50;99.90
67777;DHT22;54576;52.020;5.536;2022-12-18T09:36:10;-2.50;99.90
67777;DHT22;54576;52.020;5.536;2022-12-18T09:38:36;-2.40;99.90
67777;DHT22;54576;52.020;5.536;2022-12-18T09:41:32;-2.40;99.90
67777;DHT22;54576;52.020;5.536;2022-12-18T09:44:03;-2.30;99.90
67777;DHT22;54576;52.020;5.536;2022-12-18T09:46:34;-2.30;99.90
67777;DHT22;54576;52.020;5.536;2022-12-18T09:49:05;-2.20;99.90
67777;DHT22;54576;52.020;5.536;2022-12-18T09:51:39;-2.20;99.90
67777;DHT22;54576;52.020;5.536;2022-12-18T09:54:12;-2.10;99.90
67777;DHT22;54576;52.020;5.536;2022-12-18T09:56:42;-2.10;99.90
67777;DHT22;54576;52.020;5.536;2022-12-18T09:59:21;-2.00;99.90
67777;DHT22;54576;52.020;5.536;2022-12-18T10:01:48;-2.00;99.90
67777;DHT22;54576;52.020;5.536;2022-12-18T10:04:13;-1.90;99.90
67777;DHT22;54576;52.020;5.536;2022-12-18T10:06:46;-1.80;99.90
67777;DHT22;54576;52.020;5.536;2022-12-18T10:09:33;-1.80;99.90
67777;DHT22;54576;52.020;5.536;2022-12-18T10:14:55;-1.60;99.90
67777;DHT22;54576;52.020;5.536;2022-12-18T10:20:32;-1.50;99.90
67777;DHT22;54576;52.020;5.536;2022-12-18T10:23:15;-1.40;99.90
67777;DHT22;54576;52.020;5.536;2022-12-18T10:28:23;-1.30;99.90
67777;DHT22;54576;52.020;5.536;2022-12-18T10:30:49;-1.30;99.90
67777;DHT22;54576;52.020;5.536;2022-12-18T10:33:21;-1.20;99.90
67777;DHT22;54576;52.020;5.536;2022-12-18T10:35:49;-1.10;99.90
67777;DHT22;54576;52.020;5.536;2022-12-18T10:43:16;-1.00;99.90
67777;DHT22;54576;52.020;5.536;2022-12-18T10:46:19;-0.90;99.90
67777;DHT22;54576;52.020;5.536;2022-12-18T10:48:55;-0.90;99.90
67777;DHT22;54576;52.020;5.536;2022-12-18T10:53:59;-0.90;99.90
67777;DHT22;54576;52.020;5.536;2022-12-18T10:56:27;-0.80;99.90
67777;DHT22;54576;52.020;5.536;2022-12-18T10:59:01;-0.80;99.90
67777;DHT22;54576;52.020;5.536;2022-12-18T11:01:48;-0.70;99.90
67777;DHT22;54576;52.020;5.536;2022-12-18T11:04:31;-0.70;99.90
67777;DHT22;54576;52.020;5.536;2022-12-18T11:07:02;-0.70;99.90
67777;DHT22;54576;52.020;5.536;2022-12-18T11:09:35;-0.60;99.90
67777;DHT22;54576;52.020;5.536;2022-12-18T11:12:15;-0.60;99.90
67777;DHT22;54576;52.020;5.536;2022-12-18T11:14:52;-0.60;99.90
67777;DHT22;54576;52.020;5.536;2022-12-18T11:17:30;-0.50;99.90
67777;DHT22;54576;52.020;5.536;2022-12-18T11:19:58;-0.50;99.90
67777;DHT22;54576;52.020;5.536;2022-12-18T11:24:56;-0.40;99.90
67777;DHT22;54576;52.020;5.536;2022-12-18T11:27:23;-0.40;99.90
67777;DHT22;54576;52.020;5.536;2022-12-18T11:29:50;-0.40;99.90
67777;DHT22;54576;52.020;5.536;2022-12-18T11:32:27;-0.40;99.90
67777;DHT22;54576;52.020;5.536;2022-12-18T11:37:30;-0.30;99.90
67777;DHT22;54576;52.020;5.536;2022-12-18T11:40:01;-0.30;99.90
67777;DHT22;54576;52.020;5.536;2022-12-18T11:42:39;-0.30;99.90
67777;DHT22;54576;52.020;5.536;2022-12-18T11:50:24;-0.20;99.90
67777;DHT22;54576;52.020;5.536;2022-12-18T11:52:50;-0.20;99.90
67777;DHT22;54576;52.020;5.536;2022-12-18T12:06:29;-0.10;99.90
67777;DHT22;54576;52.020;5.536;2022-12-18T12:18:27;0.00;99.90
67777;DHT22;54576;52.020;5.536;2022-12-18T12:23:26;0.10;99.90
67777;DHT22;54576;52.020;5.536;2022-12-18T12:31:33;0.10;99.90
67777;DHT22;54576;52.020;5.536;2022-12-18T12:37:04;0.20;99.90
67777;DHT22;54576;52.020;5.536;2022-12-18T12:39:36;0.20;99.90
67777;DHT22;54576;52.020;5.536;2022-12-18T12:42:04;0.20;99.90
67777;DHT22;54576;52.020;5.536;2022-12-18T12:44:55;0.20;99.90
67777;DHT22;54576;52.020;5.536;2022-12-18T12:47:28;0.30;99.90
67777;DHT22;54576;52.020;5.536;2022-12-18T12:49:55;0.30;99.90
67777;DHT22;54576;52.020;5.536;2022-12-18T12:52:45;0.30;99.90
67777;DHT22;54576;52.020;5.536;2022-12-18T12:55:27;0.30;99.90
67777;DHT22;54576;52.020;5.536;2022-12-18T12:58:36;0.40;99.90
67777;DHT22;54576;52.020;5.536;2022-12-18T13:01:14;0.40;99.90
67777;DHT22;54576;52.020;5.536;2022-12-18T13:03:52;0.40;99.90
67777;DHT22;54576;52.020;5.536;2022-12-18T13:09:03;0.40;99.90
67777;DHT22;54576;52.020;5.536;2022-12-18T13:11:30;0.40;99.90
67777;DHT22;54576;52.020;5.536;2022-12-18T13:14:33;0.40;99.90
67777;DHT22;54576;52.020;5.536;2022-12-18T13:24:59;0.50;99.90
67777;DHT22;54576;52.020;5.536;2022-12-18T13:27:46;0.50;99.90
67777;DHT22;54576;52.020;5.536;2022-12-18T13:30:49;0.50;99.90
67777;DHT22;54576;52.020;5.536;2022-12-18T13:38:35;0.50;99.90
67777;DHT22;54576;52.020;5.536;2022-12-18T13:41:04;0.60;99.90
67777;DHT22;54576;52.020;5.536;2022-12-18T13:46:20;0.60;99.90
67777;DHT22;54576;52.020;5.536;2022-12-18T13:49:00;0.60;99.90
67777;DHT22;54576;52.020;5.536;2022-12-18T13:51:27;0.60;99.90
67777;DHT22;54576;52.020;5.536;2022-12-18T13:53:59;0.60;99.90
67777;DHT22;54576;52.020;5.536;2022-12-18T13:56:28;0.60;99.90
67777;DHT22;54576;52.020;5.536;2022-12-18T13:59:19;0.60;99.90
67777;DHT22;54576;52.020;5.536;2022-12-18T14:04:26;0.50;99.90
67777;DHT22;54576;52.020;5.536;2022-12-18T14:06:56;0.50;99.90
67777;DHT22;54576;52.020;5.536;2022-12-18T14:09:30;0.50;99.90
67777;DHT22;54576;52.020;5.536;2022-12-18T14:11:57;0.50;99.90
67777;DHT22;54576;52.020;5.536;2022-12-18T14:14:48;0.50;99.90
67777;DHT22;54576;52.020;5.536;2022-12-18T14:17:15;0.50;99.90
67777;DHT22;54576;52.020;5.536;2022-12-18T14:19:45;0.50;99.90
67777;DHT22;54576;52.020;5.536;2022-12-18T14:22:17;0.50;99.90
67777;DHT22;54576;52.020;5.536;2022-12-18T14:24:44;0.50;99.90
67777;DHT22;54576;52.020;5.536;2022-12-18T14:27:24;0.50;99.90
67777;DHT22;54576;52.020;5.536;2022-12-18T14:29:52;0.50;99.90
67777;DHT22;54576;52.020;5.536;2022-12-18T14:32:20;0.40;99.90
67777;DHT22;54576;52.020;5.536;2022-12-18T14:34:53;0.40;99.90
67777;DHT22;54576;52.020;5.536;2022-12-18T14:37:28;0.50;99.90
67777;DHT22;54576;52.020;5.536;2022-12-18T14:40:00;0.50;99.90
67777;DHT22;54576;52.020;5.536;2022-12-18T14:42:29;0.50;99.90
67777;DHT22;54576;52.020;5.536;2022-12-18T14:47:59;0.40;99.90
67777;DHT22;54576;52.020;5.536;2022-12-18T14:50:25;0.40;99.90
67777;DHT22;54576;52.020;5.536;2022-12-18T14:52:52;0.40;99.90
67777;DHT22;54576;52.020;5.536;2022-12-18T14:55:19;0.40;99.90
67777;DHT22;54576;52.020;5.536;2022-12-18T14:57:46;0.40;99.90
67777;DHT22;54576;52.020;5.536;2022-12-18T15:00:15;0.40;99.90
67777;DHT22;54576;52.020;5.536;2022-12-18T15:02:43;0.40;99.90
67777;DHT22;54576;52.020;5.536;2022-12-18T15:07:46;0.40;99.90
67777;DHT22;54576;52.020;5.536;2022-12-18T15:10:15;0.40;99.90
67777;DHT22;54576;52.020;5.536;2022-12-18T15:13:07;0.40;99.90
67777;DHT22;54576;52.020;5.536;2022-12-18T15:23:51;0.40;99.90
67777;DHT22;54576;52.020;5.536;2022-12-18T15:26:19;0.40;99.90
67777;DHT22;54576;52.020;5.536;2022-12-18T15:28:56;0.40;99.90
67777;DHT22;54576;52.020;5.536;2022-12-18T15:31:30;0.40;99.90
67777;DHT22;54576;52.020;5.536;2022-12-18T15:36:24;0.40;99.90
67777;DHT22;54576;52.020;5.536;2022-12-18T15:38:50;0.40;99.90
67777;DHT22;54576;52.020;5.536;2022-12-18T15:41:18;0.40;99.90
67777;DHT22;54576;52.020;5.536;2022-12-18T15:43:45;0.40;99.90
67777;DHT22;54576;52.020;5.536;2022-12-18T15:46:13;0.40;99.90
67777;DHT22;54576;52.020;5.536;2022-12-18T15:48:42;0.40;99.90
67777;DHT22;54576;52.020;5.536;2022-12-18T15:51:36;0.40;99.90
67777;DHT22;54576;52.020;5.536;2022-12-18T15:54:04;0.40;99.90
67777;DHT22;54576;52.020;5.536;2022-12-18T15:56:31;0.40;99.90
67777;DHT22;54576;52.020;5.536;2022-12-18T15:59:18;0.40;99.90
67777;DHT22;54576;52.020;5.536;2022-12-18T16:01:46;0.40;99.90
67777;DHT22;54576;52.020;5.536;2022-12-18T16:04:17;0.40;99.90
67777;DHT22;54576;52.020;5.536;2022-12-18T16:06:46;0.40;99.90
67777;DHT22;54576;52.020;5.536;2022-12-18T16:09:11;0.40;99.90
67777;DHT22;54576;52.020;5.536;2022-12-18T16:11:39;0.40;99.90
67777;DHT22;54576;52.020;5.536;2022-12-18T16:14:27;0.40;99.90
67777;DHT22;54576;52.020;5.536;2022-12-18T16:16:58;0.40;99.90
67777;DHT22;54576;52.020;5.536;2022-12-18T16:19:25;0.40;99.90
67777;DHT22;54576;52.020;5.536;2022-12-18T16:21:52;0.40;99.90
67777;DHT22;54576;52.020;5.536;2022-12-18T16:24:20;0.40;99.90
67777;DHT22;54576;52.020;5.536;2022-12-18T16:26:47;0.40;99.90
67777;DHT22;54576;52.020;5.536;2022-12-18T16:29:14;0.40;99.90
67777;DHT22;54576;52.020;5.536;2022-12-18T16:31:40;0.40;99.90
67777;DHT22;54576;52.020;5.536;2022-12-18T16:34:19;0.40;99.90
67777;DHT22;54576;52.020;5.536;2022-12-18T16:36:49;0.40;99.90
67777;DHT22;54576;52.020;5.536;2022-12-18T16:39:15;0.40;99.90
67777;DHT22;54576;52.020;5.536;2022-12-18T16:41:40;0.40;99.90
67777;DHT22;54576;52.020;5.536;2022-12-18T16:44:06;0.40;99.90
67777;DHT22;54576;52.020;5.536;2022-12-18T16:46:32;0.40;99.90
67777;DHT22;54576;52.020;5.536;2022-12-18T16:48:58;0.40;99.90
67777;DHT22;54576;52.020;5.536;2022-12-18T16:51:25;0.40;99.90
67777;DHT22;54576;52.020;5.536;2022-12-18T16:53:52;0.40;99.90
67777;DHT22;54576;52.020;5.536;2022-12-18T16:56:18;0.40;99.90
67777;DHT22;54576;52.020;5.536;2022-12-18T16:58:43;0.40;99.90
67777;DHT22;54576;52.020;5.536;2022-12-18T17:01:10;0.40;99.90
67777;DHT22;54576;52.020;5.536;2022-12-18T17:03:36;0.40;99.90
67777;DHT22;54576;52.020;5.536;2022-12-18T17:06:03;0.40;99.90
67777;DHT22;54576;52.020;5.536;2022-12-18T17:08:29;0.40;99.90
67777;DHT22;54576;52.020;5.536;2022-12-18T17:10:54;0.40;99.90
67777;DHT22;54576;52.020;5.536;2022-12-18T17:13:20;0.40;99.90
67777;DHT22;54576;52.020;5.536;2022-12-18T17:15:50;0.40;99.90
67777;DHT22;54576;52.020;5.536;2022-12-18T17:18:15;0.40;99.90
67777;DHT22;54576;52.020;5.536;2022-12-18T17:20:41;0.40;99.90
67777;DHT22;54576;52.020;5.536;2022-12-18T17:23:06;0.40;99.90
67777;DHT22;54576;52.020;5.536;2022-12-18T17:25:32;0.40;99.90
67777;DHT22;54576;52.020;5.536;2022-12-18T17:27:57;0.40;99.90
67777;DHT22;54576;52.020;5.536;2022-12-18T17:30:23;0.50;99.90
67777;DHT22;54576;52.020;5.536;2022-12-18T17:32:48;0.50;99.90
67777;DHT22;54576;52.020;5.536;2022-12-18T17:35:14;0.50;99.90
67777;DHT22;54576;52.020;5.536;2022-12-18T17:37:39;0.50;99.90
67777;DHT22;54576;52.020;5.536;2022-12-18T17:40:06;0.50;99.90
67777;DHT22;54576;52.020;5.536;2022-12-18T17:42:34;0.50;99.90